Time;durP1;ratioP1;P1;durP2;ratioP2;P2;SDS_P1;SDS_P2;PMS_P1;PMS_P2;Temp;Humidity;BMP_temperature;BMP_pressure;BME280_temperature;BME280_humidity;BME280_pressure;Samples;Min_cycle;Max_cycle;Signal;HPM_P1;HPM_P2
2022/01/26 00:06:36;;;;;;;3.90;1.80;;;;;;;;;;5113147;28;20536;-73
2022/01/26 00:09:03;;;;;;;4.03;1.73;;;;;;;;;;5094735;28;20412;-73
2022/01/26 00:11:31;;;;;;;2.53;1.60;;;;;;;;;;5094423;28;20435;-72
2022/01/26 00:13:58;;;;;;;5.43;2.07;;;;;;;;;;5095770;28;20412;-73
2022/01/26 00:16:36;;;;;;;6.20;1.63;;;;;;;;;;5098306;28;20437;-73
2022/01/26 00:19:03;;;;;;;3.97;1.87;;;;;;;;;;5098449;28;20503;-72
2022/01/26 00:21:34;;;;;;;2.67;1.50;;;;;;;;;;5098137;28;20428;-73
2022/01/26 00:29:20;;;;;;;2.40;1.50;;;;;;;;;;5116719;28;20400;-73
2022/01/26 00:40:04;;;;;;;2.53;1.60;;;;;;;;;;5116115;28;20416;-73
2022/01/26 00:42:36;;;;;;;2.70;1.60;;;;;;;;;;5097880;28;20462;-73
2022/01/26 00:45:02;;;;;;;3.13;1.70;;;;;;;;;;5098220;28;20413;-72
2022/01/26 00:47:29;;;;;;;2.13;1.50;;;;;;;;;;5097986;28;20401;-72
2022/01/26 00:49:59;;;;;;;2.00;1.60;;;;;;;;;;5097780;28;20793;-75
2022/01/26 00:52:39;;;;;;;2.33;1.90;;;;;;;;;;5097181;28;20400;-71
2022/01/26 00:55:06;;;;;;;5.63;1.67;;;;;;;;;;5098031;28;20416;-72
2022/01/26 00:57:32;;;;;;;5.33;1.80;;;;;;;;;;5097933;28;20405;-72
2022/01/26 00:59:59;;;;;;;4.17;1.80;;;;;;;;;;5097686;28;20797;-72
2022/01/26 01:02:25;;;;;;;2.47;1.40;;;;;;;;;;5097428;28;20413;-76
2022/01/26 01:04:52;;;;;;;2.10;1.30;;;;;;;;;;5097317;28;20405;-74
2022/01/26 01:07:21;;;;;;;3.50;1.70;;;;;;;;;;5097734;28;20401;-74
2022/01/26 01:09:47;;;;;;;2.30;1.60;;;;;;;;;;5097569;28;20909;-75
2022/01/26 01:12:13;;;;;;;5.17;1.80;;;;;;;;;;5097221;28;20819;-75
2022/01/26 01:14:42;;;;;;;2.30;1.57;;;;;;;;;;5097497;28;20401;-75
2022/01/26 01:17:12;;;;;;;1.70;1.40;;;;;;;;;;5097243;28;20425;-75
2022/01/26 01:19:56;;;;;;;5.23;1.30;;;;;;;;;;5097083;28;20923;-75
2022/01/26 01:22:40;;;;;;;1.63;1.20;;;;;;;;;;5097138;28;20485;-75
2022/01/26 01:30:26;;;;;;;2.90;1.10;;;;;;;;;;5115307;28;20425;-75
2022/01/26 01:33:03;;;;;;;1.60;1.20;;;;;;;;;;5096984;28;20416;-75
2022/01/26 01:35:32;;;;;;;2.60;1.63;;;;;;;;;;5097230;28;20408;-75
2022/01/26 01:38:07;;;;;;;2.37;1.27;;;;;;;;;;5097193;28;20421;-74
2022/01/26 01:40:33;;;;;;;2.57;1.50;;;;;;;;;;5096674;28;20440;-75
2022/01/26 01:42:59;;;;;;;6.00;1.50;;;;;;;;;;5096755;28;20923;-74
2022/01/26 01:45:32;;;;;;;2.73;1.40;;;;;;;;;;5096856;28;20504;-75
2022/01/26 01:47:58;;;;;;;2.37;1.10;;;;;;;;;;5096969;28;20496;-75
2022/01/26 01:50:24;;;;;;;1.70;1.20;;;;;;;;;;5096791;28;20555;-75
2022/01/26 01:52:50;;;;;;;1.87;1.20;;;;;;;;;;5096165;28;20420;-75
2022/01/26 01:55:17;;;;;;;3.70;1.20;;;;;;;;;;5115168;28;20409;-75
2022/01/26 01:57:43;;;;;;;2.20;1.47;;;;;;;;;;5115300;28;20428;-75
2022/01/26 02:00:10;;;;;;;3.50;1.30;;;;;;;;;;5096583;28;20433;-71
2022/01/26 02:02:36;;;;;;;2.47;1.40;;;;;;;;;;5096324;28;20416;-72
2022/01/26 02:05:03;;;;;;;2.00;1.27;;;;;;;;;;5096208;28;20409;-74
2022/01/26 02:07:29;;;;;;;2.00;1.40;;;;;;;;;;5096707;28;20402;-74
2022/01/26 02:09:55;;;;;;;3.10;1.43;;;;;;;;;;5096295;28;20425;-73
2022/01/26 02:12:24;;;;;;;2.23;1.10;;;;;;;;;;5096041;28;20924;-73
2022/01/26 02:15:02;;;;;;;1.80;1.17;;;;;;;;;;5096278;28;20921;-72
2022/01/26 02:58:11;;;;;;;6.03;1.13;;;;;;;;;;5114011;28;20403;-70
2022/01/26 03:00:29;;;;;;;2.90;1.20;;;;;;;;;;5111180;28;20421;-72
2022/01/26 03:03:10;;;;;;;3.40;1.50;;;;;;;;;;5095250;28;20405;-73
2022/01/26 03:05:44;;;;;;;1.50;1.20;;;;;;;;;;5095141;28;20548;-71
2022/01/26 03:08:10;;;;;;;1.90;1.30;;;;;;;;;;5095438;28;20400;-72
2022/01/26 03:13:11;;;;;;;2.83;1.40;;;;;;;;;;5113303;28;20408;-72
2022/01/26 03:15:43;;;;;;;1.90;1.17;;;;;;;;;;5095597;28;20416;-72
2022/01/26 03:20:56;;;;;;;1.70;1.20;;;;;;;;;;5113519;28;20525;-72
2022/01/26 03:34:14;;;;;;;2.90;1.50;;;;;;;;;;5113898;28;20421;-73
2022/01/26 03:36:47;;;;;;;1.80;1.23;;;;;;;;;;5095302;28;20411;-72
2022/01/26 03:39:16;;;;;;;2.70;1.47;;;;;;;;;;5095116;28;20408;-73
2022/01/26 03:41:46;;;;;;;9.17;1.30;;;;;;;;;;5094675;28;20437;-73
2022/01/26 03:44:13;;;;;;;2.03;1.20;;;;;;;;;;5094743;28;20412;-73
2022/01/26 03:46:39;;;;;;;2.20;1.30;;;;;;;;;;5095135;28;20533;-73
2022/01/26 03:49:06;;;;;;;5.63;1.20;;;;;;;;;;5097852;28;20809;-73
2022/01/26 03:51:33;;;;;;;1.57;1.00;;;;;;;;;;5098590;28;20456;-73
2022/01/26 03:53:59;;;;;;;1.60;1.03;;;;;;;;;;5099141;28;20490;-72
2022/01/26 03:56:25;;;;;;;1.80;1.27;;;;;;;;;;5098873;28;20478;-75
2022/01/26 03:58:51;;;;;;;2.07;1.27;;;;;;;;;;5098948;28;20901;-75
2022/01/26 04:01:17;;;;;;;2.00;1.20;;;;;;;;;;5098775;28;20512;-72
2022/01/26 04:03:43;;;;;;;2.00;1.20;;;;;;;;;;5098538;28;20423;-72
2022/01/26 04:06:09;;;;;;;2.93;1.10;;;;;;;;;;5098736;28;20810;-72
2022/01/26 04:08:37;;;;;;;1.47;1.00;;;;;;;;;;5098492;28;20409;-72
2022/01/26 04:13:29;;;;;;;1.70;1.20;;;;;;;;;;5116764;28;20460;-72
2022/01/26 04:15:55;;;;;;;1.93;1.33;;;;;;;;;;5098512;28;20415;-72
2022/01/26 04:18:28;;;;;;;1.97;0.90;;;;;;;;;;5098606;28;20421;-72
2022/01/26 04:20:57;;;;;;;2.47;1.20;;;;;;;;;;5098133;28;20448;-72
2022/01/26 04:23:33;;;;;;;2.50;1.07;;;;;;;;;;5098083;28;20413;-72
2022/01/26 04:25:59;;;;;;;2.30;1.40;;;;;;;;;;5098362;28;20798;-72
2022/01/26 04:28:32;;;;;;;1.80;1.20;;;;;;;;;;5098343;28;20400;-72
2022/01/26 04:30:58;;;;;;;2.63;1.23;;;;;;;;;;5097913;28;20417;-72
2022/01/26 04:33:24;;;;;;;1.73;1.03;;;;;;;;;;5097975;28;20412;-72
2022/01/26 04:35:51;;;;;;;1.60;0.80;;;;;;;;;;5098247;28;20497;-72
2022/01/26 04:38:23;;;;;;;2.30;1.30;;;;;;;;;;5098118;28;20439;-72
2022/01/26 04:41:24;;;;;;;1.70;1.10;;;;;;;;;;5097972;28;20433;-72
2022/01/26 04:43:54;;;;;;;1.50;1.00;;;;;;;;;;5097497;28;20409;-72
2022/01/26 04:46:20;;;;;;;2.73;1.10;;;;;;;;;;5097937;28;20547;-72
2022/01/26 04:48:46;;;;;;;1.47;1.03;;;;;;;;;;5098075;28;20912;-71
2022/01/26 04:51:12;;;;;;;1.77;1.07;;;;;;;;;;5097875;28;20905;-72
2022/01/26 04:53:38;;;;;;;1.80;1.23;;;;;;;;;;5097606;28;20458;-72
2022/01/26 04:56:05;;;;;;;1.80;1.10;;;;;;;;;;5097520;28;20777;-72
2022/01/26 04:58:31;;;;;;;3.30;1.20;;;;;;;;;;5097766;28;20413;-72
2022/01/26 05:00:57;;;;;;;1.80;1.27;;;;;;;;;;5096904;28;20425;-73
2022/01/26 05:03:23;;;;;;;2.50;1.00;;;;;;;;;;5097372;28;20903;-72
2022/01/26 05:05:48;;;;;;;1.50;0.90;;;;;;;;;;5097553;28;20464;-72
2022/01/26 05:08:14;;;;;;;7.90;1.30;;;;;;;;;;5097361;28;20405;-71
2022/01/26 05:10:43;;;;;;;2.40;1.13;;;;;;;;;;5097412;28;20436;-71
2022/01/26 05:13:15;;;;;;;1.47;1.00;;;;;;;;;;5097032;28;20496;-71
2022/01/26 05:15:41;;;;;;;2.87;1.20;;;;;;;;;;5097569;28;20496;-76
2022/01/26 05:18:07;;;;;;;7.13;1.00;;;;;;;;;;5097403;28;20412;-74
2022/01/26 05:20:34;;;;;;;2.90;1.10;;;;;;;;;;5096775;28;20497;-71
2022/01/26 05:23:00;;;;;;;3.30;1.10;;;;;;;;;;5096901;28;20885;-73
2022/01/26 05:25:26;;;;;;;1.93;1.10;;;;;;;;;;5097229;28;20535;-76
2022/01/26 05:27:52;;;;;;;11.80;6.07;;;;;;;;;;5097302;28;20546;-75
2022/01/26 05:30:18;;;;;;;9.70;5.87;;;;;;;;;;5096937;28;20508;-74
2022/01/26 05:32:44;;;;;;;8.60;4.93;;;;;;;;;;5096669;28;20432;-74
2022/01/26 05:35:11;;;;;;;5.20;4.17;;;;;;;;;;5097073;28;20420;-75
2022/01/26 05:37:37;;;;;;;17.70;4.10;;;;;;;;;;5097168;28;20470;-76
2022/01/26 05:40:04;;;;;;;11.10;3.57;;;;;;;;;;5096957;28;20436;-74
2022/01/26 05:42:31;;;;;;;9.10;3.47;;;;;;;;;;5096598;28;20495;-76
2022/01/26 05:45:04;;;;;;;8.30;3.60;;;;;;;;;;5096643;28;20492;-76
2022/01/26 05:47:32;;;;;;;5.40;3.43;;;;;;;;;;5096930;28;20432;-75
2022/01/26 05:49:58;;;;;;;5.17;3.50;;;;;;;;;;5096785;28;20465;-74
2022/01/26 05:52:25;;;;;;;4.60;2.60;;;;;;;;;;5096478;28;20492;-75
2022/01/26 05:54:51;;;;;;;6.80;3.13;;;;;;;;;;5096856;28;20504;-74
2022/01/26 05:57:17;;;;;;;7.70;2.50;;;;;;;;;;5096433;28;20953;-83
2022/01/26 05:59:43;;;;;;;9.53;2.70;;;;;;;;;;5096121;28;20524;-76
2022/01/26 06:02:09;;;;;;;16.33;2.77;;;;;;;;;;5096287;28;20488;-72
2022/01/26 06:04:35;;;;;;;3.23;1.97;;;;;;;;;;5096545;28;20413;-76
2022/01/26 06:07:01;;;;;;;11.97;3.00;;;;;;;;;;5096527;28;20916;-73
2022/01/26 06:09:27;;;;;;;3.00;1.97;;;;;;;;;;5114369;28;20400;-76
2022/01/26 06:11:53;;;;;;;2.90;2.30;;;;;;;;;;5084282;28;20890;-76
2022/01/26 06:14:19;;;;;;;5.63;2.57;;;;;;;;;;5076047;28;20414;-73
2022/01/26 06:16:45;;;;;;;3.87;2.37;;;;;;;;;;5090149;28;20414;-72
2022/01/26 06:19:11;;;;;;;3.53;2.20;;;;;;;;;;5088636;28;20924;-73
2022/01/26 06:21:38;;;;;;;5.50;2.37;;;;;;;;;;5095342;28;20437;-72
2022/01/26 06:24:04;;;;;;;11.07;2.10;;;;;;;;;;5095742;28;20926;-73
2022/01/26 06:26:30;;;;;;;14.87;2.60;;;;;;;;;;5095866;28;20448;-73
2022/01/26 06:28:56;;;;;;;13.27;2.83;;;;;;;;;;5096164;28;20416;-73
2022/01/26 06:31:26;;;;;;;5.37;2.37;;;;;;;;;;5095980;28;20428;-74
2022/01/26 06:33:52;;;;;;;4.83;2.37;;;;;;;;;;5095651;28;20467;-76
2022/01/26 06:36:19;;;;;;;19.40;2.50;;;;;;;;;;5096070;28;20412;-76
2022/01/26 06:38:46;;;;;;;12.03;3.40;;;;;;;;;;5096021;28;20440;-78
2022/01/26 06:41:13;;;;;;;22.60;4.07;;;;;;;;;;5095728;28;20440;-74
2022/01/26 06:43:50;;;;;;;9.17;2.40;;;;;;;;;;5095588;28;20405;-74
2022/01/26 06:46:25;;;;;;;5.23;2.23;;;;;;;;;;5095454;28;20460;-75
2022/01/26 06:51:23;;;;;;;9.03;2.10;;;;;;;;;;5113675;28;20424;-74
2022/01/26 06:53:49;;;;;;;8.73;2.40;;;;;;;;;;5095249;28;20409;-74
2022/01/26 06:56:15;;;;;;;20.30;2.00;;;;;;;;;;5095572;28;20476;-75
2022/01/26 06:58:41;;;;;;;18.67;2.17;;;;;;;;;;5095141;28;20412;-77
2022/01/26 07:01:07;;;;;;;5.57;2.13;;;;;;;;;;5095439;28;20429;-75
2022/01/26 07:03:33;;;;;;;13.70;2.40;;;;;;;;;;5095113;28;20413;-75
2022/01/26 07:05:59;;;;;;;6.33;1.90;;;;;;;;;;5095495;28;20468;-72
2022/01/26 07:08:25;;;;;;;9.93;1.90;;;;;;;;;;5095412;28;20968;-74
2022/01/26 07:10:53;;;;;;;7.67;2.27;;;;;;;;;;5094910;28;20433;-76
2022/01/26 07:13:19;;;;;;;10.43;2.03;;;;;;;;;;5094972;28;20761;-76
2022/01/26 07:21:27;;;;;;;4.00;1.90;;;;;;;;;;5113470;28;20425;-73
2022/01/26 07:23:53;;;;;;;7.73;2.47;;;;;;;;;;5094422;28;20437;-73
2022/01/26 07:26:20;;;;;;;10.47;2.20;;;;;;;;;;5094519;28;20461;-71
2022/01/26 07:28:46;;;;;;;6.70;2.17;;;;;;;;;;5095218;28;20773;-76
2022/01/26 07:31:12;;;;;;;14.93;1.80;;;;;;;;;;5095069;28;20447;-75
2022/01/26 07:33:39;;;;;;;10.63;2.03;;;;;;;;;;5094706;28;20397;-75
2022/01/26 07:36:06;;;;;;;9.80;2.13;;;;;;;;;;5094873;28;20405;-74
2022/01/26 07:38:32;;;;;;;6.73;1.63;;;;;;;;;;5095131;28;20413;-75
2022/01/26 07:40:58;;;;;;;5.77;1.90;;;;;;;;;;5095004;28;20497;-74
2022/01/26 07:43:25;;;;;;;9.50;1.70;;;;;;;;;;5091580;28;20908;-73
2022/01/26 07:45:51;;;;;;;5.73;1.80;;;;;;;;;;5094242;28;20453;-74
2022/01/26 07:48:17;;;;;;;5.40;1.93;;;;;;;;;;5093802;28;20405;-75
2022/01/26 07:50:45;;;;;;;4.10;1.80;;;;;;;;;;5092397;28;20816;-74
2022/01/26 07:53:16;;;;;;;7.10;3.40;;;;;;;;;;5092794;28;20405;-76
2022/01/26 07:55:42;;;;;;;5.07;1.70;;;;;;;;;;5094412;28;20421;-75
2022/01/26 07:58:09;;;;;;;3.40;2.13;;;;;;;;;;5094206;28;21234;-74
2022/01/26 08:00:36;;;;;;;7.50;1.87;;;;;;;;;;5093880;28;20770;-74
2022/01/26 08:03:02;;;;;;;3.90;1.50;;;;;;;;;;5093800;28;20452;-75
2022/01/26 08:05:28;;;;;;;3.53;1.90;;;;;;;;;;5093758;28;20456;-76
2022/01/26 08:07:54;;;;;;;4.70;2.20;;;;;;;;;;5093365;28;20401;-80
2022/01/26 08:10:20;;;;;;;4.10;1.70;;;;;;;;;;5094065;28;20436;-82
2022/01/26 08:12:48;;;;;;;7.90;1.97;;;;;;;;;;5093447;28;20462;-78
2022/01/26 08:15:14;;;;;;;6.00;1.93;;;;;;;;;;5094039;28;20413;-76
2022/01/26 08:17:40;;;;;;;4.50;2.10;;;;;;;;;;5093639;28;20827;-75
2022/01/26 08:20:08;;;;;;;3.90;2.17;;;;;;;;;;5093745;28;20508;-76
2022/01/26 08:22:34;;;;;;;6.27;2.33;;;;;;;;;;5093680;28;20401;-78
2022/01/26 08:25:00;;;;;;;3.13;1.90;;;;;;;;;;5093700;28;20839;-76
2022/01/26 08:27:31;;;;;;;4.97;1.90;;;;;;;;;;5093738;28;20994;-73
2022/01/26 08:30:05;;;;;;;6.10;2.10;;;;;;;;;;5093421;28;20436;-74
2022/01/26 08:32:31;;;;;;;3.83;2.13;;;;;;;;;;5093650;28;20416;-80
2022/01/26 08:34:57;;;;;;;4.50;1.93;;;;;;;;;;5094795;28;20405;-77
2022/01/26 08:37:23;;;;;;;2.93;1.90;;;;;;;;;;5098027;28;20420;-81
2022/01/26 08:39:49;;;;;;;5.30;2.27;;;;;;;;;;5097928;28;20956;-81
2022/01/26 08:42:15;;;;;;;3.37;1.90;;;;;;;;;;5096833;28;20409;-78
2022/01/26 08:44:41;;;;;;;4.00;1.87;;;;;;;;;;5097840;28;20416;-77
2022/01/26 08:47:07;;;;;;;3.43;2.20;;;;;;;;;;5097153;28;20525;-78
2022/01/26 08:49:33;;;;;;;4.80;2.20;;;;;;;;;;5097211;28;20412;-78
2022/01/26 08:52:00;;;;;;;2.73;1.80;;;;;;;;;;5097387;28;20448;-78
2022/01/26 08:54:26;;;;;;;3.20;1.80;;;;;;;;;;5097537;28;20409;-79
2022/01/26 08:56:53;;;;;;;2.60;1.80;;;;;;;;;;5097317;28;20409;-77
2022/01/26 08:59:20;;;;;;;3.10;2.10;;;;;;;;;;5095300;28;20413;-75
2022/01/26 09:01:46;;;;;;;9.43;2.27;;;;;;;;;;5096398;28;20436;-79
2022/01/26 09:04:12;;;;;;;8.90;2.23;;;;;;;;;;5096397;28;20401;-78
2022/01/26 09:06:49;;;;;;;3.03;1.80;;;;;;;;;;5097317;28;20463;-81
2022/01/26 09:09:16;;;;;;;7.00;2.20;;;;;;;;;;5097219;28;20406;-78
2022/01/26 09:11:42;;;;;;;2.87;1.80;;;;;;;;;;5094915;28;20429;-77
2022/01/26 09:14:10;;;;;;;5.03;1.87;;;;;;;;;;5095634;28;20423;-77
2022/01/26 09:16:37;;;;;;;13.47;2.23;;;;;;;;;;5097448;28;20405;-78
2022/01/26 09:19:13;;;;;;;2.67;1.90;;;;;;;;;;5096771;28;20435;-79
2022/01/26 09:21:39;;;;;;;2.90;1.93;;;;;;;;;;5096336;28;20519;-76
2022/01/26 09:24:05;;;;;;;2.97;1.90;;;;;;;;;;5096752;28;20416;-79
2022/01/26 09:26:31;;;;;;;4.13;2.07;;;;;;;;;;5096383;28;20457;-78
2022/01/26 09:28:57;;;;;;;10.90;2.00;;;;;;;;;;5096935;28;20769;-77
2022/01/26 09:31:23;;;;;;;5.90;2.27;;;;;;;;;;5094990;28;20440;-73
2022/01/26 09:33:50;;;;;;;3.50;1.83;;;;;;;;;;5096240;28;20401;-82
2022/01/26 09:36:16;;;;;;;4.53;2.00;;;;;;;;;;5096984;28;20413;-84
2022/01/26 09:38:42;;;;;;;4.10;2.10;;;;;;;;;;5095438;28;20413;-79
2022/01/26 09:41:08;;;;;;;3.53;1.90;;;;;;;;;;5113352;28;20505;-77
2022/01/26 09:43:34;;;;;;;5.00;2.10;;;;;;;;;;5095696;28;20405;-75
2022/01/26 09:46:00;;;;;;;4.60;2.17;;;;;;;;;;5096381;28;20464;-74
2022/01/26 09:48:26;;;;;;;3.20;1.80;;;;;;;;;;5113412;28;20482;-75
2022/01/26 09:50:55;;;;;;;3.57;1.70;;;;;;;;;;5096019;28;20448;-76
2022/01/26 09:53:26;;;;;;;3.30;1.70;;;;;;;;;;5095962;28;20409;-76
2022/01/26 09:55:52;;;;;;;3.63;1.80;;;;;;;;;;5095448;28;20417;-82
2022/01/26 09:58:20;;;;;;;3.90;1.90;;;;;;;;;;5096453;28;20766;-76
2022/01/26 10:00:46;;;;;;;2.20;1.60;;;;;;;;;;5094827;28;20435;-83
2022/01/26 10:03:12;;;;;;;3.00;2.03;;;;;;;;;;5095200;28;20889;-76
2022/01/26 10:05:45;;;;;;;6.30;2.00;;;;;;;;;;5085798;28;20826;-76
2022/01/26 10:17:23;;;;;;;2.93;2.20;;;;;;;;;;5114433;28;20396;-83
2022/01/26 10:19:18;;;;;;;5.10;2.10;;;;;;;;;;5103002;28;20440;-80
2022/01/26 10:21:51;;;;;;;2.80;1.87;;;;;;;;;;5095361;28;20433;-76
2022/01/26 10:24:20;;;;;;;3.53;2.20;;;;;;;;;;5095781;28;20413;-74
2022/01/26 10:26:50;;;;;;;3.53;1.80;;;;;;;;;;5093488;28;20460;-74
2022/01/26 10:29:16;;;;;;;4.43;1.83;;;;;;;;;;5095729;28;20448;-82
2022/01/26 10:31:43;;;;;;;4.20;1.90;;;;;;;;;;5095199;28;20436;-74
2022/01/26 10:34:13;;;;;;;3.20;1.90;;;;;;;;;;5095605;28;20405;-76
2022/01/26 10:36:42;;;;;;;2.43;1.77;;;;;;;;;;5095781;28;20477;-76
2022/01/26 10:39:28;;;;;;;2.40;1.80;;;;;;;;;;5094539;28;20499;-77
2022/01/26 10:41:58;;;;;;;2.37;1.53;;;;;;;;;;5094953;28;20408;-74
2022/01/26 10:44:34;;;;;;;2.90;1.97;;;;;;;;;;5095205;28;20428;-75
2022/01/26 10:47:03;;;;;;;2.30;1.80;;;;;;;;;;5094177;28;20460;-71
2022/01/26 10:52:34;;;;;;;5.33;1.63;;;;;;;;;;5111839;28;20401;-78
2022/01/26 10:55:00;;;;;;;2.03;1.30;;;;;;;;;;5095051;28;20408;-74
2022/01/26 10:57:26;;;;;;;4.23;1.80;;;;;;;;;;5094939;28;20766;-73
2022/01/26 10:59:53;;;;;;;3.70;1.90;;;;;;;;;;5095328;28;20975;-73
2022/01/26 11:02:29;;;;;;;5.10;2.50;;;;;;;;;;5094750;28;20417;-73
2022/01/26 11:04:55;;;;;;;3.70;2.50;;;;;;;;;;5095515;28;20416;-74
2022/01/26 11:07:29;;;;;;;3.40;2.10;;;;;;;;;;5095310;28;20543;-74
2022/01/26 11:09:55;;;;;;;4.73;2.07;;;;;;;;;;5095275;28;20463;-73
2022/01/26 11:12:28;;;;;;;9.87;2.60;;;;;;;;;;5094811;28;20893;-73
2022/01/26 11:14:59;;;;;;;3.80;1.90;;;;;;;;;;5094902;28;20440;-73
2022/01/26 11:17:33;;;;;;;4.10;2.20;;;;;;;;;;5095176;28;20769;-74
2022/01/26 11:20:00;;;;;;;3.87;2.20;;;;;;;;;;5094990;28;20837;-74
2022/01/26 11:22:29;;;;;;;3.13;2.10;;;;;;;;;;5094911;28;20441;-74
2022/01/26 11:24:55;;;;;;;3.27;2.07;;;;;;;;;;5095063;28;20417;-74
2022/01/26 11:27:22;;;;;;;3.20;2.03;;;;;;;;;;5094758;28;20464;-74
2022/01/26 11:29:53;;;;;;;3.97;2.43;;;;;;;;;;5094699;28;20929;-74
2022/01/26 11:32:27;;;;;;;3.37;1.93;;;;;;;;;;5094366;28;20894;-74
2022/01/26 11:34:54;;;;;;;3.07;2.30;;;;;;;;;;5094945;28;20439;-74
2022/01/26 11:37:44;;;;;;;3.50;2.30;;;;;;;;;;5094807;28;20405;-74
2022/01/26 11:45:38;;;;;;;3.10;2.10;;;;;;;;;;5112994;28;20448;-74
2022/01/26 11:48:05;;;;;;;2.50;1.93;;;;;;;;;;5094798;28;20409;-73
2022/01/26 11:50:31;;;;;;;3.50;2.00;;;;;;;;;;5093960;28;20431;-74
2022/01/26 11:53:17;;;;;;;3.70;1.90;;;;;;;;;;5094053;28;20401;-73
2022/01/26 11:55:49;;;;;;;3.00;1.93;;;;;;;;;;5093804;28;20808;-73
2022/01/26 11:58:18;;;;;;;3.47;1.80;;;;;;;;;;5094567;28;20518;-73
2022/01/26 12:01:07;;;;;;;2.80;2.17;;;;;;;;;;5094373;28;20428;-74
2022/01/26 12:03:35;;;;;;;4.17;2.00;;;;;;;;;;5093906;28;20496;-74
2022/01/26 12:06:01;;;;;;;2.63;1.73;;;;;;;;;;5094518;28;20464;-74
2022/01/26 12:08:46;;;;;;;2.20;1.63;;;;;;;;;;5094638;28;20409;-74
2022/01/26 12:11:13;;;;;;;2.70;1.80;;;;;;;;;;5097601;28;20481;-74
2022/01/26 12:13:40;;;;;;;6.80;1.97;;;;;;;;;;5098201;28;20874;-74
2022/01/26 12:16:11;;;;;;;2.43;1.83;;;;;;;;;;5098213;28;20417;-73
2022/01/26 12:18:53;;;;;;;2.80;1.73;;;;;;;;;;5098344;28;20412;-74
2022/01/26 12:43:18;;;;;;;5.13;2.40;;;;;;;;;;5116512;28;20400;-75
2022/01/26 12:45:45;;;;;;;3.07;1.90;;;;;;;;;;5097982;28;20456;-75
2022/01/26 12:48:11;;;;;;;3.20;2.27;;;;;;;;;;5097978;28;20436;-75
2022/01/26 12:50:39;;;;;;;5.77;3.20;;;;;;;;;;5097879;28;20429;-74
2022/01/26 12:53:05;;;;;;;6.07;4.00;;;;;;;;;;5097206;28;20424;-74
2022/01/26 12:55:33;;;;;;;7.23;4.57;;;;;;;;;;5097843;28;20435;-76
2022/01/26 12:57:59;;;;;;;6.70;4.07;;;;;;;;;;5097786;28;20417;-76
2022/01/26 13:00:25;;;;;;;7.50;3.73;;;;;;;;;;5097764;28;20505;-75
2022/01/26 13:02:52;;;;;;;8.03;4.27;;;;;;;;;;5097316;28;20413;-75
2022/01/26 13:05:26;;;;;;;7.43;4.40;;;;;;;;;;5097436;28;20497;-75
2022/01/26 13:07:59;;;;;;;11.73;5.27;;;;;;;;;;5097655;28;20405;-75
2022/01/26 13:10:25;;;;;;;7.40;4.03;;;;;;;;;;5097283;28;20936;-74
2022/01/26 13:12:51;;;;;;;5.30;3.50;;;;;;;;;;5097226;28;20393;-74
2022/01/26 13:15:22;;;;;;;10.93;4.77;;;;;;;;;;5097564;28;20412;-74
2022/01/26 13:17:57;;;;;;;7.20;4.03;;;;;;;;;;5097149;28;20404;-74
2022/01/26 13:23:41;;;;;;;7.90;4.20;;;;;;;;;;5083464;28;20448;-74
2022/01/26 13:36:24;;;;;;;8.97;4.30;;;;;;;;;;5115584;28;20885;-75
2022/01/26 13:39:15;;;;;;;9.40;4.30;;;;;;;;;;5097172;28;20420;-75
2022/01/26 13:52:52;;;;;;;13.30;4.73;;;;;;;;;;5114552;28;20881;-75
2022/01/26 14:00:39;;;;;;;8.90;4.27;;;;;;;;;;5115134;28;20757;-74
2022/01/26 14:03:07;;;;;;;8.80;4.00;;;;;;;;;;5096258;28;20404;-75
2022/01/26 14:05:34;;;;;;;7.53;4.30;;;;;;;;;;5096193;28;20401;-74
2022/01/26 14:08:00;;;;;;;10.87;4.83;;;;;;;;;;5096505;28;20430;-75
2022/01/26 14:10:26;;;;;;;9.60;4.30;;;;;;;;;;5096283;28;20429;-75
2022/01/26 14:12:52;;;;;;;11.20;4.27;;;;;;;;;;5096115;28;20462;-76
2022/01/26 14:15:27;;;;;;;11.47;4.90;;;;;;;;;;5096309;28;20451;-75
2022/01/26 14:23:31;;;;;;;8.40;3.70;;;;;;;;;;5114406;28;20412;-75
2022/01/26 14:25:58;;;;;;;9.63;4.47;;;;;;;;;;5096077;28;20452;-80
2022/01/26 14:28:31;;;;;;;10.70;5.20;;;;;;;;;;5096134;28;20819;-74
2022/01/26 14:33:46;;;;;;;17.33;4.50;;;;;;;;;;5113148;28;20429;-70
2022/01/26 14:53:28;;;;;;;8.90;4.30;;;;;;;;;;5114081;28;20516;-71
2022/01/26 15:35:28;;;;;;;10.57;4.50;;;;;;;;;;5113734;28;20454;-75
2022/01/26 15:43:34;;;;;;;10.60;5.20;;;;;;;;;;5112722;28;20394;-75
2022/01/26 15:51:11;;;;;;;10.50;5.20;;;;;;;;;;5117300;28;20448;-75
2022/01/26 16:18:16;;;;;;;8.90;3.83;;;;;;;;;;5117310;28;20404;-75
2022/01/26 16:20:35;;;;;;;11.03;4.50;;;;;;;;;;5115774;28;20443;-75
2022/01/26 16:44:26;;;;;;;9.97;5.30;;;;;;;;;;5116548;28;20423;-75
2022/01/26 17:12:28;;;;;;;7.30;4.33;;;;;;;;;;5115265;28;20448;-75
2022/01/26 17:24:19;;;;;;;9.63;4.23;;;;;;;;;;5114146;28;20488;-74
2022/01/26 18:39:06;;;;;;;6.07;2.67;;;;;;;;;;5113900;28;20393;-79
2022/01/26 18:49:33;;;;;;;5.17;3.17;;;;;;;;;;5113606;28;20397;-77
2022/01/26 18:52:00;;;;;;;5.10;3.40;;;;;;;;;;5094962;28;20409;-79
2022/01/26 18:54:27;;;;;;;4.13;2.50;;;;;;;;;;5095270;28;20908;-78
2022/01/26 18:56:53;;;;;;;4.40;3.00;;;;;;;;;;5094918;28;20413;-77
2022/01/26 18:59:22;;;;;;;4.70;2.87;;;;;;;;;;5094985;28;20420;-77
2022/01/26 19:01:48;;;;;;;4.43;2.80;;;;;;;;;;5094657;28;20424;-78
2022/01/26 19:04:15;;;;;;;4.10;2.80;;;;;;;;;;5094949;28;20440;-75
2022/01/26 19:06:48;;;;;;;4.33;2.90;;;;;;;;;;5094763;28;20543;-76
2022/01/26 19:09:17;;;;;;;5.20;2.70;;;;;;;;;;5095480;28;20449;-75
2022/01/26 19:11:44;;;;;;;3.77;2.70;;;;;;;;;;5094664;28;20884;-74
2022/01/26 19:14:10;;;;;;;6.77;3.10;;;;;;;;;;5095587;28;20405;-76
2022/01/26 19:16:43;;;;;;;5.97;3.07;;;;;;;;;;5095341;28;20413;-72
2022/01/26 19:33:05;;;;;;;9.70;3.83;;;;;;;;;;5113330;28;20405;-75
2022/01/26 19:46:25;;;;;;;6.60;4.07;;;;;;;;;;5113298;28;20539;-75
2022/01/26 19:51:43;;;;;;;5.33;3.23;;;;;;;;;;5111236;28;20419;-79
2022/01/26 19:54:09;;;;;;;6.80;4.10;;;;;;;;;;5094794;28;20920;-73
2022/01/26 19:56:35;;;;;;;7.40;3.87;;;;;;;;;;5094737;28;20960;-78
2022/01/26 19:59:02;;;;;;;6.90;3.40;;;;;;;;;;5094820;28;20413;-72
2022/01/26 20:01:29;;;;;;;6.07;3.77;;;;;;;;;;5094382;28;20503;-77
2022/01/26 20:03:55;;;;;;;8.10;3.67;;;;;;;;;;5094671;28;20885;-74
2022/01/26 20:06:21;;;;;;;6.30;3.50;;;;;;;;;;5094764;28;20508;-73
2022/01/26 20:11:29;;;;;;;7.13;3.80;;;;;;;;;;5112860;28;20500;-77
2022/01/26 20:14:01;;;;;;;6.83;3.30;;;;;;;;;;5094415;28;20939;-77
2022/01/26 20:16:27;;;;;;;6.30;3.53;;;;;;;;;;5094801;28;20404;-78
2022/01/26 20:18:53;;;;;;;4.80;3.20;;;;;;;;;;5094685;28;20473;-76
2022/01/26 20:21:19;;;;;;;4.87;3.67;;;;;;;;;;5094639;28;20525;-74
2022/01/26 20:23:45;;;;;;;7.30;3.43;;;;;;;;;;5115564;28;20459;-76
2022/01/26 20:26:12;;;;;;;6.27;3.77;;;;;;;;;;5091070;28;21008;-73
2022/01/26 20:28:41;;;;;;;4.60;3.17;;;;;;;;;;5094671;28;20405;-73
2022/01/26 20:31:17;;;;;;;7.20;3.40;;;;;;;;;;5095715;28;21131;-77
2022/01/26 20:33:43;;;;;;;6.77;2.90;;;;;;;;;;5098112;28;20891;-72
2022/01/26 20:36:09;;;;;;;5.37;3.50;;;;;;;;;;5116784;28;21027;-72
2022/01/26 20:38:35;;;;;;;8.20;3.50;;;;;;;;;;5097993;28;20951;-73
2022/01/26 20:41:01;;;;;;;4.80;3.20;;;;;;;;;;5104841;28;20436;-72
2022/01/26 20:43:27;;;;;;;6.30;3.43;;;;;;;;;;5113633;28;20405;-73
2022/01/26 20:45:53;;;;;;;6.03;3.67;;;;;;;;;;5116348;28;20452;-74
2022/01/26 20:48:19;;;;;;;5.73;3.20;;;;;;;;;;5116241;28;20508;-72
2022/01/26 20:50:45;;;;;;;6.80;3.43;;;;;;;;;;5096816;28;20515;-73
2022/01/26 20:53:11;;;;;;;7.60;3.50;;;;;;;;;;5097825;28;20412;-74
2022/01/26 20:55:39;;;;;;;6.73;3.50;;;;;;;;;;5098074;28;20500;-76
2022/01/26 20:58:06;;;;;;;8.40;3.53;;;;;;;;;;5107626;27;20469;-79
2022/01/26 21:00:32;;;;;;;5.17;3.57;;;;;;;;;;5118174;27;20439;-78
2022/01/26 21:02:58;;;;;;;6.40;3.37;;;;;;;;;;5117656;27;20400;-77
2022/01/26 21:05:27;;;;;;;7.10;3.90;;;;;;;;;;5108565;28;20413;-75
2022/01/26 21:07:53;;;;;;;9.10;3.57;;;;;;;;;;5097033;28;20509;-75
2022/01/26 21:10:19;;;;;;;6.40;4.07;;;;;;;;;;5097755;28;20433;-72
2022/01/26 21:12:45;;;;;;;10.90;3.20;;;;;;;;;;5097474;28;20777;-70
2022/01/26 21:15:11;;;;;;;7.30;3.00;;;;;;;;;;5115805;28;20791;-72
2022/01/26 21:17:39;;;;;;;10.30;3.53;;;;;;;;;;5097524;28;20897;-71
2022/01/26 21:20:05;;;;;;;5.33;3.20;;;;;;;;;;5096955;28;20448;-71
2022/01/26 21:22:31;;;;;;;7.37;3.23;;;;;;;;;;5097100;28;20409;-71
2022/01/26 21:24:58;;;;;;;24.13;3.37;;;;;;;;;;5093858;28;20426;-73
2022/01/26 21:27:24;;;;;;;11.10;3.40;;;;;;;;;;5093618;28;20458;-71
2022/01/26 21:29:50;;;;;;;12.37;3.07;;;;;;;;;;5093735;28;20433;-72
2022/01/26 21:32:16;;;;;;;31.00;15.90;;;;;;;;;;5098070;28;20413;-68
2022/01/26 21:34:42;;;;;;;40.40;13.77;;;;;;;;;;5096175;28;20458;-70
2022/01/26 21:37:08;;;;;;;25.30;10.23;;;;;;;;;;5096601;28;20449;-69
2022/01/26 21:39:35;;;;;;;20.47;9.63;;;;;;;;;;5096083;28;20403;-72
2022/01/26 21:42:03;;;;;;;18.77;8.17;;;;;;;;;;5095753;28;20777;-72
2022/01/26 21:44:30;;;;;;;15.23;7.73;;;;;;;;;;5096506;28;20424;-72
2022/01/26 21:46:56;;;;;;;16.07;7.73;;;;;;;;;;5114588;28;20456;-70
2022/01/26 21:49:22;;;;;;;16.27;8.60;;;;;;;;;;5096614;28;20452;-71
2022/01/26 21:51:48;;;;;;;12.90;6.97;;;;;;;;;;5096340;28;20491;-70
2022/01/26 21:54:14;;;;;;;10.93;6.03;;;;;;;;;;5096869;28;20904;-73